sensor_id;sensor_type;location;lat;lon;timestamp;P1;durP1;ratioP1;P2;durP2;ratioP2
47713;SDS011;33475;46.614;13.888;2022-11-20T00:01:50;5.88;;;5.20;;
47713;SDS011;33475;46.614;13.888;2022-11-20T00:04:16;6.63;;;4.88;;
47713;SDS011;33475;46.614;13.888;2022-11-20T00:06:42;6.32;;;4.80;;
47713;SDS011;33475;46.614;13.888;2022-11-20T00:09:09;5.72;;;4.93;;
47713;SDS011;33475;46.614;13.888;2022-11-20T00:11:35;4.97;;;4.40;;
47713;SDS011;33475;46.614;13.888;2022-11-20T00:14:02;6.55;;;4.60;;
47713;SDS011;33475;46.614;13.888;2022-11-20T00:16:29;6.43;;;4.70;;
47713;SDS011;33475;46.614;13.888;2022-11-20T00:18:56;6.43;;;5.50;;
47713;SDS011;33475;46.614;13.888;2022-11-20T00:21:26;5.82;;;4.88;;
47713;SDS011;33475;46.614;13.888;2022-11-20T00:23:53;5.03;;;4.53;;
47713;SDS011;33475;46.614;13.888;2022-11-20T00:26:20;5.35;;;4.60;;
47713;SDS011;33475;46.614;13.888;2022-11-20T00:28:50;6.30;;;4.75;;
47713;SDS011;33475;46.614;13.888;2022-11-20T00:31:16;5.50;;;4.75;;
47713;SDS011;33475;46.614;13.888;2022-11-20T00:33:43;5.05;;;4.53;;
47713;SDS011;33475;46.614;13.888;2022-11-20T00:36:14;4.95;;;4.38;;
47713;SDS011;33475;46.614;13.888;2022-11-20T00:38:41;6.10;;;4.00;;
47713;SDS011;33475;46.614;13.888;2022-11-20T00:41:08;4.78;;;4.25;;
47713;SDS011;33475;46.614;13.888;2022-11-20T00:43:35;4.25;;;3.85;;
47713;SDS011;33475;46.614;13.888;2022-11-20T00:46:03;6.20;;;4.30;;
47713;SDS011;33475;46.614;13.888;2022-11-20T00:48:30;5.25;;;4.75;;
47713;SDS011;33475;46.614;13.888;2022-11-20T00:50:57;7.03;;;5.25;;
47713;SDS011;33475;46.614;13.888;2022-11-20T00:53:23;6.45;;;4.93;;
47713;SDS011;33475;46.614;13.888;2022-11-20T00:55:57;8.40;;;5.03;;
47713;SDS011;33475;46.614;13.888;2022-11-20T00:58:24;5.78;;;5.18;;
47713;SDS011;33475;46.614;13.888;2022-11-20T01:00:50;5.53;;;5.03;;
47713;SDS011;33475;46.614;13.888;2022-11-20T01:03:17;6.60;;;4.43;;
47713;SDS011;33475;46.614;13.888;2022-11-20T01:05:43;4.45;;;3.97;;
47713;SDS011;33475;46.614;13.888;2022-11-20T01:08:10;9.43;;;4.10;;
47713;SDS011;33475;46.614;13.888;2022-11-20T01:10:36;4.82;;;4.32;;
47713;SDS011;33475;46.614;13.888;2022-11-20T01:13:02;4.70;;;4.20;;
47713;SDS011;33475;46.614;13.888;2022-11-20T01:15:47;6.40;;;3.90;;
47713;SDS011;33475;46.614;13.888;2022-11-20T01:18:13;4.18;;;3.78;;
47713;SDS011;33475;46.614;13.888;2022-11-20T01:20:39;4.15;;;3.70;;
47713;SDS011;33475;46.614;13.888;2022-11-20T01:23:05;3.88;;;3.53;;
47713;SDS011;33475;46.614;13.888;2022-11-20T01:25:31;3.40;;;2.97;;
47713;SDS011;33475;46.614;13.888;2022-11-20T01:28:00;3.90;;;3.05;;
47713;SDS011;33475;46.614;13.888;2022-11-20T01:30:26;3.90;;;3.50;;
47713;SDS011;33475;46.614;13.888;2022-11-20T01:32:52;3.78;;;2.88;;
47713;SDS011;33475;46.614;13.888;2022-11-20T01:35:18;3.38;;;2.88;;
47713;SDS011;33475;46.614;13.888;2022-11-20T01:37:44;4.22;;;3.65;;
47713;SDS011;33475;46.614;13.888;2022-11-20T01:40:10;3.38;;;2.95;;
47713;SDS011;33475;46.614;13.888;2022-11-20T01:42:37;3.45;;;3.15;;
47713;SDS011;33475;46.614;13.888;2022-11-20T01:50:34;5.40;;;3.53;;
47713;SDS011;33475;46.614;13.888;2022-11-20T01:53:02;5.75;;;3.00;;
47713;SDS011;33475;46.614;13.888;2022-11-20T01:55:37;3.45;;;2.95;;
47713;SDS011;33475;46.614;13.888;2022-11-20T01:58:05;3.20;;;2.90;;
47713;SDS011;33475;46.614;13.888;2022-11-20T02:00:32;4.47;;;2.78;;
47713;SDS011;33475;46.614;13.888;2022-11-20T02:02:59;3.85;;;3.45;;
47713;SDS011;33475;46.614;13.888;2022-11-20T02:07:55;3.40;;;3.10;;
47713;SDS011;33475;46.614;13.888;2022-11-20T02:10:22;3.70;;;3.20;;
47713;SDS011;33475;46.614;13.888;2022-11-20T02:12:48;4.18;;;3.78;;
47713;SDS011;33475;46.614;13.888;2022-11-20T02:15:44;5.38;;;4.70;;
47713;SDS011;33475;46.614;13.888;2022-11-20T02:18:11;4.65;;;3.95;;
47713;SDS011;33475;46.614;13.888;2022-11-20T02:20:40;4.18;;;3.80;;
47713;SDS011;33475;46.614;13.888;2022-11-20T02:23:12;4.40;;;4.00;;
47713;SDS011;33475;46.614;13.888;2022-11-20T02:25:38;4.32;;;3.92;;
47713;SDS011;33475;46.614;13.888;2022-11-20T02:28:05;4.47;;;3.53;;
47713;SDS011;33475;46.614;13.888;2022-11-20T02:30:31;4.32;;;3.88;;
47713;SDS011;33475;46.614;13.888;2022-11-20T02:32:58;3.50;;;3.20;;
47713;SDS011;33475;46.614;13.888;2022-11-20T02:37:51;4.18;;;3.67;;
47713;SDS011;33475;46.614;13.888;2022-11-20T02:40:19;3.50;;;3.20;;
47713;SDS011;33475;46.614;13.888;2022-11-20T02:42:45;3.90;;;3.20;;
47713;SDS011;33475;46.614;13.888;2022-11-20T02:45:11;4.07;;;3.67;;
47713;SDS011;33475;46.614;13.888;2022-11-20T02:47:38;6.93;;;3.95;;
47713;SDS011;33475;46.614;13.888;2022-11-20T02:50:05;4.63;;;3.75;;
47713;SDS011;33475;46.614;13.888;2022-11-20T02:52:31;5.22;;;3.08;;
47713;SDS011;33475;46.614;13.888;2022-11-20T02:54:57;5.72;;;3.30;;
47713;SDS011;33475;46.614;13.888;2022-11-20T02:57:23;5.65;;;3.75;;
47713;SDS011;33475;46.614;13.888;2022-11-20T02:59:50;4.25;;;3.38;;
47713;SDS011;33475;46.614;13.888;2022-11-20T03:02:16;3.53;;;3.03;;
47713;SDS011;33475;46.614;13.888;2022-11-20T03:04:42;5.97;;;3.35;;
47713;SDS011;33475;46.614;13.888;2022-11-20T03:07:08;3.50;;;3.20;;
47713;SDS011;33475;46.614;13.888;2022-11-20T03:09:35;6.57;;;3.45;;
47713;SDS011;33475;46.614;13.888;2022-11-20T03:12:01;6.20;;;3.47;;
47713;SDS011;33475;46.614;13.888;2022-11-20T03:14:27;3.70;;;3.35;;
47713;SDS011;33475;46.614;13.888;2022-11-20T03:16:53;3.53;;;3.22;;
47713;SDS011;33475;46.614;13.888;2022-11-20T03:19:19;3.75;;;3.45;;
47713;SDS011;33475;46.614;13.888;2022-11-20T03:21:46;3.70;;;3.40;;
47713;SDS011;33475;46.614;13.888;2022-11-20T03:24:12;9.40;;;3.17;;
47713;SDS011;33475;46.614;13.888;2022-11-20T03:26:38;3.83;;;3.42;;
47713;SDS011;33475;46.614;13.888;2022-11-20T03:29:05;4.07;;;3.60;;
47713;SDS011;33475;46.614;13.888;2022-11-20T03:31:35;3.50;;;3.20;;
47713;SDS011;33475;46.614;13.888;2022-11-20T03:34:02;3.75;;;3.45;;
47713;SDS011;33475;46.614;13.888;2022-11-20T03:36:28;4.00;;;3.60;;
47713;SDS011;33475;46.614;13.888;2022-11-20T03:38:55;6.53;;;3.60;;
47713;SDS011;33475;46.614;13.888;2022-11-20T03:41:22;4.30;;;3.90;;
47713;SDS011;33475;46.614;13.888;2022-11-20T03:46:15;4.63;;;4.22;;
47713;SDS011;33475;46.614;13.888;2022-11-20T03:48:41;5.10;;;3.95;;
47713;SDS011;33475;46.614;13.888;2022-11-20T03:51:14;6.05;;;5.45;;
47713;SDS011;33475;46.614;13.888;2022-11-20T03:53:41;5.50;;;5.00;;
47713;SDS011;33475;46.614;13.888;2022-11-20T03:56:07;5.97;;;5.38;;
47713;SDS011;33475;46.614;13.888;2022-11-20T03:58:34;6.55;;;5.95;;
47713;SDS011;33475;46.614;13.888;2022-11-20T04:01:09;6.32;;;5.72;;
47713;SDS011;33475;46.614;13.888;2022-11-20T04:03:36;6.68;;;6.07;;
47713;SDS011;33475;46.614;13.888;2022-11-20T04:06:03;7.82;;;5.80;;
47713;SDS011;33475;46.614;13.888;2022-11-20T04:08:30;6.97;;;6.38;;
47713;SDS011;33475;46.614;13.888;2022-11-20T04:10:56;7.88;;;7.18;;
47713;SDS011;33475;46.614;13.888;2022-11-20T04:13:22;6.70;;;6.10;;
47713;SDS011;33475;46.614;13.888;2022-11-20T04:15:48;7.93;;;7.20;;
47713;SDS011;33475;46.614;13.888;2022-11-20T04:18:15;6.35;;;5.72;;
47713;SDS011;33475;46.614;13.888;2022-11-20T04:20:41;6.40;;;5.80;;
47713;SDS011;33475;46.614;13.888;2022-11-20T04:23:07;7.07;;;6.38;;
47713;SDS011;33475;46.614;13.888;2022-11-20T04:25:33;7.07;;;6.38;;
47713;SDS011;33475;46.614;13.888;2022-11-20T04:27:59;8.02;;;6.60;;
47713;SDS011;33475;46.614;13.888;2022-11-20T04:30:25;7.10;;;6.40;;
47713;SDS011;33475;46.614;13.888;2022-11-20T04:32:52;6.80;;;6.20;;
47713;SDS011;33475;46.614;13.888;2022-11-20T04:35:19;9.43;;;6.88;;
47713;SDS011;33475;46.614;13.888;2022-11-20T04:37:45;7.72;;;6.93;;
47713;SDS011;33475;46.614;13.888;2022-11-20T04:40:11;8.13;;;7.32;;
47713;SDS011;33475;46.614;13.888;2022-11-20T04:42:37;9.15;;;7.40;;
47713;SDS011;33475;46.614;13.888;2022-11-20T04:45:03;7.80;;;7.00;;
47713;SDS011;33475;46.614;13.888;2022-11-20T04:47:30;7.75;;;6.80;;
47713;SDS011;33475;46.614;13.888;2022-11-20T04:49:56;7.82;;;7.03;;
47713;SDS011;33475;46.614;13.888;2022-11-20T04:52:22;9.38;;;6.65;;
47713;SDS011;33475;46.614;13.888;2022-11-20T04:54:48;7.13;;;6.43;;
47713;SDS011;33475;46.614;13.888;2022-11-20T04:57:17;6.88;;;6.22;;
47713;SDS011;33475;46.614;13.888;2022-11-20T04:59:44;7.00;;;6.30;;
47713;SDS011;33475;46.614;13.888;2022-11-20T05:02:10;7.43;;;6.07;;
47713;SDS011;33475;46.614;13.888;2022-11-20T05:04:36;7.32;;;6.63;;
47713;SDS011;33475;46.614;13.888;2022-11-20T05:07:02;7.10;;;6.40;;
47713;SDS011;33475;46.614;13.888;2022-11-20T05:09:29;6.30;;;5.70;;
47713;SDS011;33475;46.614;13.888;2022-11-20T05:11:56;6.90;;;6.25;;
47713;SDS011;33475;46.614;13.888;2022-11-20T05:14:22;7.47;;;6.78;;
47713;SDS011;33475;46.614;13.888;2022-11-20T05:16:48;6.68;;;6.05;;
47713;SDS011;33475;46.614;13.888;2022-11-20T05:19:14;6.20;;;5.65;;
47713;SDS011;33475;46.614;13.888;2022-11-20T05:21:40;7.07;;;5.70;;
47713;SDS011;33475;46.614;13.888;2022-11-20T05:24:06;8.48;;;6.03;;
47713;SDS011;33475;46.614;13.888;2022-11-20T05:26:32;7.15;;;6.15;;
47713;SDS011;33475;46.614;13.888;2022-11-20T05:28:59;6.93;;;6.22;;
47713;SDS011;33475;46.614;13.888;2022-11-20T05:31:25;6.40;;;5.80;;
47713;SDS011;33475;46.614;13.888;2022-11-20T05:33:51;9.02;;;6.85;;
47713;SDS011;33475;46.614;13.888;2022-11-20T05:36:18;6.93;;;6.10;;
47713;SDS011;33475;46.614;13.888;2022-11-20T05:38:44;6.90;;;6.20;;
47713;SDS011;33475;46.614;13.888;2022-11-20T05:41:15;6.05;;;5.35;;
47713;SDS011;33475;46.614;13.888;2022-11-20T05:43:42;6.38;;;5.78;;
47713;SDS011;33475;46.614;13.888;2022-11-20T05:46:09;6.38;;;5.82;;
47713;SDS011;33475;46.614;13.888;2022-11-20T05:48:35;6.57;;;5.90;;
47713;SDS011;33475;46.614;13.888;2022-11-20T05:51:02;6.18;;;5.68;;
47713;SDS011;33475;46.614;13.888;2022-11-20T05:53:28;8.10;;;5.38;;
47713;SDS011;33475;46.614;13.888;2022-11-20T05:56:02;6.15;;;5.55;;
47713;SDS011;33475;46.614;13.888;2022-11-20T05:58:28;6.88;;;5.03;;
47713;SDS011;33475;46.614;13.888;2022-11-20T06:01:02;5.22;;;4.72;;
47713;SDS011;33475;46.614;13.888;2022-11-20T06:03:28;5.47;;;4.97;;
47713;SDS011;33475;46.614;13.888;2022-11-20T06:05:54;5.45;;;4.78;;
47713;SDS011;33475;46.614;13.888;2022-11-20T06:08:20;5.38;;;4.80;;
47713;SDS011;33475;46.614;13.888;2022-11-20T06:10:46;6.20;;;4.50;;
47713;SDS011;33475;46.614;13.888;2022-11-20T06:13:13;5.88;;;4.53;;
47713;SDS011;33475;46.614;13.888;2022-11-20T06:15:39;6.30;;;4.97;;
47713;SDS011;33475;46.614;13.888;2022-11-20T06:18:05;5.20;;;4.70;;
47713;SDS011;33475;46.614;13.888;2022-11-20T06:20:31;5.25;;;4.57;;
47713;SDS011;33475;46.614;13.888;2022-11-20T06:22:57;4.82;;;4.43;;
47713;SDS011;33475;46.614;13.888;2022-11-20T06:25:23;5.38;;;4.57;;
47713;SDS011;33475;46.614;13.888;2022-11-20T06:27:49;8.80;;;4.53;;
47713;SDS011;33475;46.614;13.888;2022-11-20T06:30:15;6.07;;;4.95;;
47713;SDS011;33475;46.614;13.888;2022-11-20T06:32:41;5.85;;;5.32;;
47713;SDS011;33475;46.614;13.888;2022-11-20T06:35:07;5.85;;;5.15;;
47713;SDS011;33475;46.614;13.888;2022-11-20T06:37:34;6.70;;;6.00;;
47713;SDS011;33475;46.614;13.888;2022-11-20T06:40:00;6.13;;;5.53;;
47713;SDS011;33475;46.614;13.888;2022-11-20T06:42:26;7.28;;;6.38;;
47713;SDS011;33475;46.614;13.888;2022-11-20T06:44:52;6.45;;;5.45;;
47713;SDS011;33475;46.614;13.888;2022-11-20T06:47:18;6.82;;;6.13;;
47713;SDS011;33475;46.614;13.888;2022-11-20T06:49:44;10.25;;;5.95;;
47713;SDS011;33475;46.614;13.888;2022-11-20T06:52:10;6.35;;;5.75;;
47713;SDS011;33475;46.614;13.888;2022-11-20T06:54:36;6.88;;;6.18;;
47713;SDS011;33475;46.614;13.888;2022-11-20T06:57:02;6.97;;;6.28;;
47713;SDS011;33475;46.614;13.888;2022-11-20T06:59:29;8.30;;;6.22;;
47713;SDS011;33475;46.614;13.888;2022-11-20T07:01:55;7.35;;;6.32;;
47713;SDS011;33475;46.614;13.888;2022-11-20T07:04:21;6.57;;;5.97;;
47713;SDS011;33475;46.614;13.888;2022-11-20T07:06:47;7.63;;;5.45;;
47713;SDS011;33475;46.614;13.888;2022-11-20T07:09:14;5.72;;;5.15;;
47713;SDS011;33475;46.614;13.888;2022-11-20T07:11:40;6.18;;;5.57;;
47713;SDS011;33475;46.614;13.888;2022-11-20T07:14:06;6.90;;;5.72;;
47713;SDS011;33475;46.614;13.888;2022-11-20T07:16:32;5.22;;;4.57;;
47713;SDS011;33475;46.614;13.888;2022-11-20T07:18:58;4.85;;;4.45;;
47713;SDS011;33475;46.614;13.888;2022-11-20T07:21:24;5.43;;;4.57;;
47713;SDS011;33475;46.614;13.888;2022-11-20T07:23:50;4.43;;;4.03;;
47713;SDS011;33475;46.614;13.888;2022-11-20T07:26:16;4.95;;;3.72;;
47713;SDS011;33475;46.614;13.888;2022-11-20T07:28:45;4.57;;;4.18;;
47713;SDS011;33475;46.614;13.888;2022-11-20T07:31:12;4.57;;;3.90;;
47713;SDS011;33475;46.614;13.888;2022-11-20T07:33:38;5.05;;;4.55;;
47713;SDS011;33475;46.614;13.888;2022-11-20T07:36:04;4.45;;;4.05;;
47713;SDS011;33475;46.614;13.888;2022-11-20T07:38:30;6.45;;;4.38;;
47713;SDS011;33475;46.614;13.888;2022-11-20T07:40:56;4.88;;;4.18;;
47713;SDS011;33475;46.614;13.888;2022-11-20T07:43:23;4.45;;;4.05;;
47713;SDS011;33475;46.614;13.888;2022-11-20T07:45:50;3.90;;;3.58;;
47713;SDS011;33475;46.614;13.888;2022-11-20T07:48:16;5.05;;;4.53;;
47713;SDS011;33475;46.614;13.888;2022-11-20T07:50:42;4.40;;;4.00;;
47713;SDS011;33475;46.614;13.888;2022-11-20T07:53:08;4.68;;;4.28;;
47713;SDS011;33475;46.614;13.888;2022-11-20T07:55:34;5.05;;;4.43;;
47713;SDS011;33475;46.614;13.888;2022-11-20T07:58:01;5.68;;;5.18;;
47713;SDS011;33475;46.614;13.888;2022-11-20T08:00:27;5.82;;;4.78;;
47713;SDS011;33475;46.614;13.888;2022-11-20T08:02:53;7.03;;;4.32;;
47713;SDS011;33475;46.614;13.888;2022-11-20T08:05:19;4.85;;;4.22;;
47713;SDS011;33475;46.614;13.888;2022-11-20T08:07:46;6.05;;;4.57;;
47713;SDS011;33475;46.614;13.888;2022-11-20T08:10:13;5.28;;;4.75;;
47713;SDS011;33475;46.614;13.888;2022-11-20T08:12:47;6.25;;;5.38;;
47713;SDS011;33475;46.614;13.888;2022-11-20T08:15:32;5.85;;;5.13;;
47713;SDS011;33475;46.614;13.888;2022-11-20T08:20:27;9.68;;;6.07;;
47713;SDS011;33475;46.614;13.888;2022-11-20T08:22:57;5.93;;;5.32;;
47713;SDS011;33475;46.614;13.888;2022-11-20T08:25:23;9.38;;;5.25;;
47713;SDS011;33475;46.614;13.888;2022-11-20T08:27:49;5.43;;;4.93;;
47713;SDS011;33475;46.614;13.888;2022-11-20T08:30:16;7.93;;;4.05;;
47713;SDS011;33475;46.614;13.888;2022-11-20T08:32:42;4.43;;;4.03;;
47713;SDS011;33475;46.614;13.888;2022-11-20T08:35:08;4.68;;;4.05;;
47713;SDS011;33475;46.614;13.888;2022-11-20T08:37:34;5.28;;;4.30;;
47713;SDS011;33475;46.614;13.888;2022-11-20T08:40:02;4.45;;;4.05;;
47713;SDS011;33475;46.614;13.888;2022-11-20T08:42:28;4.53;;;4.13;;
47713;SDS011;33475;46.614;13.888;2022-11-20T08:44:54;4.93;;;4.43;;
47713;SDS011;33475;46.614;13.888;2022-11-20T08:47:20;4.25;;;3.85;;
47713;SDS011;33475;46.614;13.888;2022-11-20T08:49:46;4.68;;;4.18;;
47713;SDS011;33475;46.614;13.888;2022-11-20T08:52:13;4.15;;;3.75;;
47713;SDS011;33475;46.614;13.888;2022-11-20T08:54:39;4.30;;;3.63;;
47713;SDS011;33475;46.614;13.888;2022-11-20T08:57:05;4.20;;;3.80;;
47713;SDS011;33475;46.614;13.888;2022-11-20T08:59:31;10.70;;;5.63;;
47713;SDS011;33475;46.614;13.888;2022-11-20T09:01:57;8.68;;;4.43;;
47713;SDS011;33475;46.614;13.888;2022-11-20T09:04:23;4.75;;;4.28;;
47713;SDS011;33475;46.614;13.888;2022-11-20T09:06:49;5.65;;;4.20;;
47713;SDS011;33475;46.614;13.888;2022-11-20T09:09:16;7.35;;;3.72;;
47713;SDS011;33475;46.614;13.888;2022-11-20T09:11:43;4.97;;;3.75;;
47713;SDS011;33475;46.614;13.888;2022-11-20T09:14:09;6.28;;;5.15;;
47713;SDS011;33475;46.614;13.888;2022-11-20T09:16:35;5.00;;;4.18;;
47713;SDS011;33475;46.614;13.888;2022-11-20T09:19:01;5.60;;;3.58;;
47713;SDS011;33475;46.614;13.888;2022-11-20T09:21:28;3.92;;;3.63;;
47713;SDS011;33475;46.614;13.888;2022-11-20T09:23:54;6.35;;;5.40;;
47713;SDS011;33475;46.614;13.888;2022-11-20T09:26:20;4.18;;;3.78;;
47713;SDS011;33475;46.614;13.888;2022-11-20T09:28:46;4.60;;;4.03;;
47713;SDS011;33475;46.614;13.888;2022-11-20T09:31:18;6.57;;;4.60;;
47713;SDS011;33475;46.614;13.888;2022-11-20T09:33:45;4.93;;;3.88;;
47713;SDS011;33475;46.614;13.888;2022-11-20T09:36:11;5.00;;;4.18;;
47713;SDS011;33475;46.614;13.888;2022-11-20T09:38:37;4.82;;;4.43;;
47713;SDS011;33475;46.614;13.888;2022-11-20T09:41:04;4.70;;;4.30;;
47713;SDS011;33475;46.614;13.888;2022-11-20T09:46:17;4.50;;;4.10;;
47713;SDS011;33475;46.614;13.888;2022-11-20T09:51:39;4.70;;;4.30;;
47713;SDS011;33475;46.614;13.888;2022-11-20T09:54:18;5.57;;;3.83;;
47713;SDS011;33475;46.614;13.888;2022-11-20T09:56:52;4.90;;;4.50;;
47713;SDS011;33475;46.614;13.888;2022-11-20T09:59:23;6.55;;;4.20;;
47713;SDS011;33475;46.614;13.888;2022-11-20T10:01:53;4.97;;;4.45;;
47713;SDS011;33475;46.614;13.888;2022-11-20T10:04:20;6.88;;;5.07;;
47713;SDS011;33475;46.614;13.888;2022-11-20T10:09:21;5.47;;;4.97;;
47713;SDS011;33475;46.614;13.888;2022-11-20T10:14:33;6.28;;;5.45;;
47713;SDS011;33475;46.614;13.888;2022-11-20T10:17:52;4.72;;;4.20;;
47713;SDS011;33475;46.614;13.888;2022-11-20T10:24:51;5.82;;;5.18;;
47713;SDS011;33475;46.614;13.888;2022-11-20T10:30:01;5.15;;;4.75;;
47713;SDS011;33475;46.614;13.888;2022-11-20T10:32:30;4.68;;;4.28;;
47713;SDS011;33475;46.614;13.888;2022-11-20T10:35:03;5.10;;;4.60;;
47713;SDS011;33475;46.614;13.888;2022-11-20T10:37:31;9.40;;;4.68;;
47713;SDS011;33475;46.614;13.888;2022-11-20T10:48:10;6.40;;;5.75;;
47713;SDS011;33475;46.614;13.888;2022-11-20T10:50:37;5.55;;;4.40;;
47713;SDS011;33475;46.614;13.888;2022-11-20T10:55:55;5.22;;;4.82;;
47713;SDS011;33475;46.614;13.888;2022-11-20T11:01:18;4.22;;;3.92;;
47713;SDS011;33475;46.614;13.888;2022-11-20T11:03:48;4.65;;;4.13;;
47713;SDS011;33475;46.614;13.888;2022-11-20T11:08:53;4.45;;;4.05;;
47713;SDS011;33475;46.614;13.888;2022-11-20T11:11:32;4.25;;;3.85;;
47713;SDS011;33475;46.614;13.888;2022-11-20T11:14:08;3.53;;;3.22;;
47713;SDS011;33475;46.614;13.888;2022-11-20T11:16:35;3.30;;;3.00;;
47713;SDS011;33475;46.614;13.888;2022-11-20T11:19:11;3.83;;;3.53;;
47713;SDS011;33475;46.614;13.888;2022-11-20T11:21:38;3.67;;;3.38;;
47713;SDS011;33475;46.614;13.888;2022-11-20T11:24:15;3.63;;;3.33;;
47713;SDS011;33475;46.614;13.888;2022-11-20T11:26:50;6.00;;;3.90;;
47713;SDS011;33475;46.614;13.888;2022-11-20T11:29:17;3.47;;;3.17;;
47713;SDS011;33475;46.614;13.888;2022-11-20T11:31:44;3.30;;;3.10;;
47713;SDS011;33475;46.614;13.888;2022-11-20T11:34:13;3.83;;;3.25;;
47713;SDS011;33475;46.614;13.888;2022-11-20T11:36:40;3.42;;;3.13;;
47713;SDS011;33475;46.614;13.888;2022-11-20T11:39:18;3.63;;;2.67;;
47713;SDS011;33475;46.614;13.888;2022-11-20T11:41:46;2.85;;;2.35;;
47713;SDS011;33475;46.614;13.888;2022-11-20T11:44:47;2.85;;;2.65;;
47713;SDS011;33475;46.614;13.888;2022-11-20T11:47:24;1.65;;;1.55;;
47713;SDS011;33475;46.614;13.888;2022-11-20T11:50:52;1.48;;;1.38;;
47713;SDS011;33475;46.614;13.888;2022-11-20T11:55:24;4.03;;;1.38;;
47713;SDS011;33475;46.614;13.888;2022-11-20T12:00:21;1.67;;;1.20;;
47713;SDS011;33475;46.614;13.888;2022-11-20T12:02:57;1.70;;;1.60;;
47713;SDS011;33475;46.614;13.888;2022-11-20T12:05:37;1.55;;;1.40;;
47713;SDS011;33475;46.614;13.888;2022-11-20T12:08:06;1.38;;;1.27;;
47713;SDS011;33475;46.614;13.888;2022-11-20T12:10:38;1.30;;;1.20;;
47713;SDS011;33475;46.614;13.888;2022-11-20T12:13:18;1.30;;;1.20;;
47713;SDS011;33475;46.614;13.888;2022-11-20T12:15:46;1.90;;;1.30;;
47713;SDS011;33475;46.614;13.888;2022-11-20T12:18:20;1.50;;;1.40;;
47713;SDS011;33475;46.614;13.888;2022-11-20T12:23:52;1.48;;;1.38;;
47713;SDS011;33475;46.614;13.888;2022-11-20T12:31:35;1.65;;;1.55;;
47713;SDS011;33475;46.614;13.888;2022-11-20T12:36:52;2.13;;;2.03;;
47713;SDS011;33475;46.614;13.888;2022-11-20T12:55:23;2.85;;;2.60;;
47713;SDS011;33475;46.614;13.888;2022-11-20T12:57:59;2.67;;;2.22;;
47713;SDS011;33475;46.614;13.888;2022-11-20T13:00:26;2.92;;;2.72;;
47713;SDS011;33475;46.614;13.888;2022-11-20T13:05:27;2.75;;;2.55;;
47713;SDS011;33475;46.614;13.888;2022-11-20T13:07:55;3.03;;;2.78;;
47713;SDS011;33475;46.614;13.888;2022-11-20T13:13:03;2.78;;;2.58;;
47713;SDS011;33475;46.614;13.888;2022-11-20T13:18:29;2.55;;;2.30;;
47713;SDS011;33475;46.614;13.888;2022-11-20T13:20:59;3.13;;;2.55;;
47713;SDS011;33475;46.614;13.888;2022-11-20T13:23:27;2.80;;;2.47;;
47713;SDS011;33475;46.614;13.888;2022-11-20T13:26:06;7.28;;;2.60;;
47713;SDS011;33475;46.614;13.888;2022-11-20T13:28:39;2.15;;;2.05;;
47713;SDS011;33475;46.614;13.888;2022-11-20T13:31:09;2.35;;;2.15;;
47713;SDS011;33475;46.614;13.888;2022-11-20T13:33:36;2.50;;;2.30;;
47713;SDS011;33475;46.614;13.888;2022-11-20T13:36:04;3.80;;;3.40;;
47713;SDS011;33475;46.614;13.888;2022-11-20T13:38:42;2.88;;;2.65;;
47713;SDS011;33475;46.614;13.888;2022-11-20T13:41:09;2.60;;;2.20;;
47713;SDS011;33475;46.614;13.888;2022-11-20T13:43:59;2.50;;;2.30;;
47713;SDS011;33475;46.614;13.888;2022-11-20T13:46:35;2.65;;;2.45;;
47713;SDS011;33475;46.614;13.888;2022-11-20T13:49:05;3.42;;;2.67;;
47713;SDS011;33475;46.614;13.888;2022-11-20T13:51:49;2.47;;;1.95;;
47713;SDS011;33475;46.614;13.888;2022-11-20T13:57:12;3.10;;;2.25;;
47713;SDS011;33475;46.614;13.888;2022-11-20T14:02:17;2.70;;;2.50;;
47713;SDS011;33475;46.614;13.888;2022-11-20T14:04:54;2.40;;;2.20;;
47713;SDS011;33475;46.614;13.888;2022-11-20T14:07:24;2.50;;;2.30;;
47713;SDS011;33475;46.614;13.888;2022-11-20T14:09:52;2.30;;;2.05;;
47713;SDS011;33475;46.614;13.888;2022-11-20T14:12:20;2.60;;;2.40;;
47713;SDS011;33475;46.614;13.888;2022-11-20T14:14:50;3.30;;;2.30;;
47713;SDS011;33475;46.614;13.888;2022-11-20T14:17:24;4.70;;;2.40;;
47713;SDS011;33475;46.614;13.888;2022-11-20T14:19:51;3.47;;;3.17;;
47713;SDS011;33475;46.614;13.888;2022-11-20T14:22:26;2.80;;;2.60;;
47713;SDS011;33475;46.614;13.888;2022-11-20T14:27:38;5.15;;;4.65;;
47713;SDS011;33475;46.614;13.888;2022-11-20T14:30:05;3.15;;;2.55;;
47713;SDS011;33475;46.614;13.888;2022-11-20T14:32:31;4.40;;;2.85;;
47713;SDS011;33475;46.614;13.888;2022-11-20T14:35:02;2.67;;;2.38;;
47713;SDS011;33475;46.614;13.888;2022-11-20T14:37:35;2.37;;;2.17;;
47713;SDS011;33475;46.614;13.888;2022-11-20T14:40:02;4.28;;;2.00;;
47713;SDS011;33475;46.614;13.888;2022-11-20T14:42:29;2.80;;;2.53;;
47713;SDS011;33475;46.614;13.888;2022-11-20T14:44:59;3.38;;;2.95;;
47713;SDS011;33475;46.614;13.888;2022-11-20T14:47:26;4.22;;;2.65;;
47713;SDS011;33475;46.614;13.888;2022-11-20T14:49:53;2.30;;;2.10;;
47713;SDS011;33475;46.614;13.888;2022-11-20T14:52:21;3.45;;;2.35;;
47713;SDS011;33475;46.614;13.888;2022-11-20T14:54:56;2.75;;;2.30;;
47713;SDS011;33475;46.614;13.888;2022-11-20T14:57:32;4.00;;;3.20;;
47713;SDS011;33475;46.614;13.888;2022-11-20T15:02:32;2.63;;;2.42;;
47713;SDS011;33475;46.614;13.888;2022-11-20T15:04:58;4.43;;;3.47;;
47713;SDS011;33475;46.614;13.888;2022-11-20T15:07:27;6.10;;;4.45;;
47713;SDS011;33475;46.614;13.888;2022-11-20T15:10:01;6.32;;;4.28;;
47713;SDS011;33475;46.614;13.888;2022-11-20T15:12:29;5.38;;;4.60;;
47713;SDS011;33475;46.614;13.888;2022-11-20T15:14:55;10.30;;;7.28;;
47713;SDS011;33475;46.614;13.888;2022-11-20T15:17:22;10.40;;;7.00;;
47713;SDS011;33475;46.614;13.888;2022-11-20T15:19:50;10.15;;;7.05;;
47713;SDS011;33475;46.614;13.888;2022-11-20T15:22:17;11.90;;;7.97;;
47713;SDS011;33475;46.614;13.888;2022-11-20T15:24:44;8.20;;;5.78;;
47713;SDS011;33475;46.614;13.888;2022-11-20T15:27:10;7.00;;;4.82;;
47713;SDS011;33475;46.614;13.888;2022-11-20T15:29:36;5.20;;;3.70;;
47713;SDS011;33475;46.614;13.888;2022-11-20T15:32:02;3.90;;;3.50;;
47713;SDS011;33475;46.614;13.888;2022-11-20T15:34:28;4.45;;;3.55;;
47713;SDS011;33475;46.614;13.888;2022-11-20T15:36:55;2.60;;;2.40;;
47713;SDS011;33475;46.614;13.888;2022-11-20T15:39:21;2.60;;;2.40;;
47713;SDS011;33475;46.614;13.888;2022-11-20T15:41:47;2.80;;;2.58;;
47713;SDS011;33475;46.614;13.888;2022-11-20T15:44:13;3.40;;;2.20;;
47713;SDS011;33475;46.614;13.888;2022-11-20T15:46:40;2.17;;;1.98;;
47713;SDS011;33475;46.614;13.888;2022-11-20T15:49:12;11.15;;;7.03;;
47713;SDS011;33475;46.614;13.888;2022-11-20T15:51:43;10.40;;;5.22;;
47713;SDS011;33475;46.614;13.888;2022-11-20T15:54:15;6.75;;;4.40;;
47713;SDS011;33475;46.614;13.888;2022-11-20T15:56:45;24.80;;;9.05;;
47713;SDS011;33475;46.614;13.888;2022-11-20T15:59:12;13.30;;;6.85;;
47713;SDS011;33475;46.614;13.888;2022-11-20T16:01:40;8.75;;;5.55;;
47713;SDS011;33475;46.614;13.888;2022-11-20T16:04:13;12.35;;;7.18;;
47713;SDS011;33475;46.614;13.888;2022-11-20T16:06:40;10.32;;;6.15;;
47713;SDS011;33475;46.614;13.888;2022-11-20T16:09:06;3.55;;;2.70;;
47713;SDS011;33475;46.614;13.888;2022-11-20T16:11:33;5.53;;;2.83;;
47713;SDS011;33475;46.614;13.888;2022-11-20T16:14:03;3.90;;;3.35;;
47713;SDS011;33475;46.614;13.888;2022-11-20T16:16:48;5.30;;;3.70;;
47713;SDS011;33475;46.614;13.888;2022-11-20T16:19:14;5.95;;;4.72;;
47713;SDS011;33475;46.614;13.888;2022-11-20T16:21:41;5.82;;;5.22;;